createdAt,value
2023-01-31T00:02:00.581Z,74.74
2023-01-31T00:04:28.737Z,74.83
2023-01-31T00:06:58.109Z,74.39
2023-01-31T00:09:26.139Z,74.35
2023-01-31T00:11:54.502Z,74.87
2023-01-31T00:14:22.741Z,74.92
2023-01-31T00:16:52.181Z,75.46
2023-01-31T00:19:20.264Z,74.74
2023-01-31T00:21:48.292Z,74.68
2023-01-31T00:24:17.825Z,74.85
2023-01-31T00:26:46.371Z,75.56
2023-01-31T00:29:14.351Z,75.45
2023-01-31T00:31:42.545Z,75.59
2023-01-31T00:34:12.618Z,75.11
2023-01-31T00:36:44.223Z,75.50
2023-01-31T00:39:12.435Z,75.19
2023-01-31T00:41:41.828Z,75.31
2023-01-31T00:44:09.802Z,76.13
2023-01-31T00:46:39.932Z,75.78
2023-01-31T00:49:08.140Z,76.27
2023-01-31T00:51:36.542Z,75.84
2023-01-31T00:54:04.774Z,76.57
2023-01-31T00:56:33.809Z,76.19
2023-01-31T00:59:04.497Z,77.06
2023-01-31T01:01:33.278Z,76.91
2023-01-31T01:04:01.362Z,76.96
2023-01-31T01:06:34.898Z,77.24
2023-01-31T01:09:03.316Z,77.09
2023-01-31T01:11:33.454Z,77.79
2023-01-31T01:14:04.429Z,77.79
2023-01-31T01:16:35.536Z,77.52
2023-01-31T01:19:06.119Z,77.50
2023-01-31T01:21:39.065Z,78.28
2023-01-31T01:24:09.529Z,78.58
2023-01-31T01:26:40.550Z,78.38
2023-01-31T01:29:10.363Z,77.92
2023-01-31T01:31:39.438Z,78.25
2023-01-31T01:34:09.801Z,78.05
2023-01-31T01:36:39.209Z,78.91
2023-01-31T01:39:10.092Z,79.12
2023-01-31T01:41:40.033Z,78.28
2023-01-31T01:44:48.527Z,79.13
2023-01-31T01:47:23.115Z,78.92
2023-01-31T01:49:56.117Z,79.52
2023-01-31T01:52:25.517Z,79.49
2023-01-31T01:54:57.294Z,78.91
2023-01-31T01:57:31.783Z,79.41
2023-01-31T02:00:10.071Z,79.55
2023-01-31T02:02:44.168Z,79.99
2023-01-31T02:05:15.864Z,80.14
2023-01-31T02:07:44.352Z,79.79
2023-01-31T02:10:17.468Z,79.19
2023-01-31T02:12:46.143Z,79.95
2023-01-31T02:15:15.923Z,79.61
2023-01-31T02:17:44.063Z,79.63
2023-01-31T02:20:26.695Z,80.09
2023-01-31T02:23:10.639Z,80.17
2023-01-31T02:26:11.281Z,80.52
2023-01-31T02:29:16.587Z,80.26
2023-01-31T02:32:24.990Z,80.31
2023-01-31T02:35:04.638Z,80.16
2023-01-31T02:37:45.735Z,80.19
2023-01-31T02:40:21.721Z,80.05
2023-01-31T02:42:56.183Z,80.66
2023-01-31T02:45:31.729Z,80.68
2023-01-31T02:48:14.758Z,80.76
2023-01-31T02:51:00.412Z,81.20
2023-01-31T02:53:34.406Z,80.36
2023-01-31T02:56:18.342Z,80.34
2023-01-31T02:58:53.152Z,80.78
2023-01-31T03:01:25.463Z,81.05
2023-01-31T03:03:55.019Z,80.86
2023-01-31T03:07:00.376Z,81.07
2023-01-31T03:09:49.705Z,80.76
2023-01-31T03:12:30.723Z,81.27
2023-01-31T03:15:18.027Z,80.98
2023-01-31T03:17:56.995Z,81.33
2023-01-31T03:20:31.149Z,80.92
2023-01-31T03:23:06.150Z,80.58
2023-01-31T03:25:38.315Z,80.63
2023-01-31T03:28:13.116Z,81.06
2023-01-31T03:30:44.747Z,81.30
2023-01-31T03:33:20.673Z,80.94
2023-01-31T03:35:57.029Z,80.99
2023-01-31T03:38:32.505Z,81.49
2023-01-31T03:41:08.749Z,81.91
2023-01-31T03:43:44.490Z,81.48
2023-01-31T03:46:17.988Z,81.75
2023-01-31T03:48:50.893Z,81.70
2023-01-31T03:51:22.486Z,81.30
2023-01-31T03:53:56.033Z,81.79
2023-01-31T03:56:33.717Z,81.89
2023-01-31T03:59:08.584Z,81.92
2023-01-31T04:01:41.753Z,81.31
2023-01-31T04:04:12.912Z,81.57
2023-01-31T04:06:41.219Z,81.82
2023-01-31T04:09:11.784Z,81.15
2023-01-31T04:11:42.167Z,81.58
2023-01-31T04:14:11.523Z,81.40
2023-01-31T04:16:39.518Z,81.63
2023-01-31T04:19:07.470Z,81.96
2023-01-31T04:21:35.477Z,81.71
2023-01-31T04:24:03.546Z,81.34
2023-01-31T04:26:33.308Z,81.76
2023-01-31T04:29:01.417Z,81.78
2023-01-31T04:31:29.493Z,82.04
2023-01-31T04:33:58.443Z,82.41
2023-01-31T04:36:27.091Z,82.53
2023-01-31T04:38:55.068Z,82.15
2023-01-31T04:41:23.048Z,82.14
2023-01-31T04:43:52.384Z,82.65
2023-01-31T04:46:20.934Z,82.76
2023-01-31T04:48:48.960Z,82.29
2023-01-31T04:51:16.962Z,82.63
2023-01-31T04:53:45.224Z,82.55
2023-01-31T04:56:13.253Z,82.15
2023-01-31T04:58:41.575Z,82.66
2023-01-31T05:01:11.191Z,82.53
2023-01-31T05:03:39.231Z,82.51
2023-01-31T05:06:08.614Z,82.60
2023-01-31T05:08:36.813Z,82.90
2023-01-31T05:11:07.543Z,83.37
2023-01-31T05:13:38.179Z,83.45
2023-01-31T05:16:08.624Z,83.55
2023-01-31T05:18:38.390Z,83.22
2023-01-31T05:21:07.836Z,83.65
2023-01-31T05:23:36.186Z,83.78
2023-01-31T05:26:04.949Z,83.18
2023-01-31T05:28:32.996Z,83.19
2023-01-31T05:31:06.847Z,83.85
2023-01-31T05:33:37.159Z,84.02
2023-01-31T05:36:05.979Z,83.40
2023-01-31T05:38:34.044Z,82.28
2023-01-31T05:41:02.047Z,82.50
2023-01-31T05:43:30.037Z,82.75
2023-01-31T05:45:58.146Z,82.84
2023-01-31T05:48:26.110Z,82.70
2023-01-31T05:50:55.428Z,83.31
2023-01-31T05:53:23.554Z,82.95
2023-01-31T05:55:51.522Z,81.84
2023-01-31T05:58:19.474Z,81.77
2023-01-31T06:00:47.455Z,81.78
2023-01-31T06:03:15.649Z,81.25
2023-01-31T06:05:43.652Z,81.44
2023-01-31T06:08:13.874Z,82.24
2023-01-31T06:10:41.855Z,82.07
2023-01-31T06:13:09.860Z,82.00
2023-01-31T06:15:38.081Z,81.42
2023-01-31T06:18:06.201Z,82.51
2023-01-31T06:20:34.159Z,82.40
2023-01-31T06:23:02.290Z,83.16
2023-01-31T06:25:32.048Z,82.72
2023-01-31T06:28:00.113Z,83.54
2023-01-31T06:30:28.193Z,84.17
2023-01-31T06:32:56.478Z,83.56
2023-01-31T06:35:24.474Z,83.47
2023-01-31T06:37:52.832Z,83.06
2023-01-31T06:40:21.060Z,82.91
2023-01-31T06:42:50.401Z,82.80
2023-01-31T06:45:19.203Z,82.88
2023-01-31T06:47:47.592Z,82.94
2023-01-31T06:50:15.551Z,83.26
2023-01-31T06:52:44.013Z,83.02
2023-01-31T06:55:12.622Z,83.11
2023-01-31T06:57:48.110Z,83.00
2023-01-31T07:00:19.674Z,83.00
2023-01-31T07:02:48.141Z,83.02
2023-01-31T07:05:16.375Z,82.89
2023-01-31T07:07:44.391Z,82.55
2023-01-31T07:10:13.753Z,82.44
2023-01-31T07:12:41.869Z,82.54
2023-01-31T07:15:11.493Z,83.43
2023-01-31T07:17:40.990Z,83.19
2023-01-31T07:20:10.778Z,83.83
2023-01-31T07:22:38.784Z,84.78
2023-01-31T07:25:07.586Z,85.30
2023-01-31T07:27:35.626Z,84.97
2023-01-31T07:30:03.648Z,84.86
2023-01-31T07:32:32.300Z,84.56
2023-01-31T07:35:01.711Z,83.92
2023-01-31T07:37:30.008Z,84.24
2023-01-31T07:39:57.986Z,83.83
2023-01-31T07:42:25.951Z,83.08
2023-01-31T07:44:54.845Z,83.21
2023-01-31T07:47:22.850Z,83.09
2023-01-31T07:49:51.453Z,84.63
2023-01-31T07:52:20.791Z,84.94
2023-01-31T07:54:49.145Z,84.39
2023-01-31T07:57:17.923Z,84.28
2023-01-31T07:59:45.887Z,83.43
2023-01-31T08:02:32.993Z,82.05
2023-01-31T08:05:01.371Z,82.56
2023-01-31T08:07:31.838Z,82.75
2023-01-31T08:09:59.863Z,82.64
2023-01-31T08:12:27.829Z,82.54
2023-01-31T08:14:55.990Z,82.92
2023-01-31T08:17:24.011Z,83.55
2023-01-31T08:19:52.026Z,82.45
2023-01-31T08:22:20.163Z,82.16
2023-01-31T08:24:49.504Z,81.74
2023-01-31T08:27:18.426Z,80.92
2023-01-31T08:29:46.400Z,80.41
2023-01-31T08:32:14.459Z,80.58
2023-01-31T08:34:43.572Z,81.35
2023-01-31T08:37:11.637Z,82.02
2023-01-31T08:39:39.823Z,81.67
2023-01-31T08:42:09.188Z,80.84
2023-01-31T08:44:38.528Z,80.35
2023-01-31T08:47:06.636Z,80.83
2023-01-31T08:49:37.048Z,80.82
2023-01-31T08:52:05.446Z,81.00
2023-01-31T08:54:33.397Z,80.42
2023-01-31T08:57:01.372Z,79.78
2023-01-31T08:59:31.391Z,79.89
2023-01-31T09:01:59.508Z,80.07
2023-01-31T09:04:27.587Z,80.79
2023-01-31T09:06:55.884Z,80.87
2023-01-31T09:09:25.993Z,80.70
2023-01-31T09:11:54.050Z,79.76
2023-01-31T09:14:22.054Z,79.68
2023-01-31T09:16:51.453Z,79.72
2023-01-31T09:19:19.626Z,79.52
2023-01-31T09:21:47.622Z,79.19
2023-01-31T09:24:15.637Z,78.83
2023-01-31T09:26:43.667Z,79.17
2023-01-31T09:29:11.673Z,79.18
2023-01-31T09:31:39.759Z,79.00
2023-01-31T09:34:09.203Z,79.05
2023-01-31T09:36:37.137Z,78.57
2023-01-31T09:39:05.386Z,78.34
2023-01-31T09:41:38.138Z,78.30
2023-01-31T09:44:11.740Z,78.41
2023-01-31T09:46:43.557Z,78.07
2023-01-31T09:49:20.337Z,78.20
2023-01-31T09:51:53.396Z,77.93
2023-01-31T09:54:29.685Z,78.81
2023-01-31T09:57:06.961Z,78.86
2023-01-31T09:59:44.235Z,78.23
2023-01-31T10:02:38.724Z,77.40
2023-01-31T10:05:23.109Z,76.83
2023-01-31T10:08:00.775Z,78.05
2023-01-31T10:10:37.585Z,77.75
2023-01-31T10:13:14.168Z,78.40
2023-01-31T10:15:46.279Z,77.67
2023-01-31T10:18:19.239Z,77.73
2023-01-31T10:20:53.435Z,77.38
2023-01-31T10:23:27.893Z,77.07
2023-01-31T10:26:00.755Z,77.39
2023-01-31T10:28:35.729Z,77.36
2023-01-31T10:31:13.359Z,76.24
2023-01-31T10:33:49.452Z,75.68
2023-01-31T10:36:27.964Z,74.54
2023-01-31T10:39:01.594Z,74.50
2023-01-31T10:41:42.302Z,74.39
2023-01-31T10:44:20.995Z,72.65
2023-01-31T10:46:49.433Z,72.77
2023-01-31T10:49:18.277Z,72.75
2023-01-31T10:52:06.831Z,71.23
2023-01-31T10:54:43.900Z,71.59
2023-01-31T10:57:11.988Z,72.30
2023-01-31T10:59:44.477Z,71.58
2023-01-31T11:02:21.153Z,71.13
2023-01-31T11:04:52.370Z,71.31
2023-01-31T11:07:22.700Z,70.53
2023-01-31T11:09:54.067Z,71.22
2023-01-31T11:12:23.078Z,70.31
2023-01-31T11:15:08.246Z,69.83
2023-01-31T11:17:39.038Z,70.78
2023-01-31T11:20:08.084Z,69.68
2023-01-31T11:22:38.781Z,69.65
2023-01-31T11:25:08.026Z,69.09
2023-01-31T11:27:40.781Z,69.30
2023-01-31T11:30:22.931Z,68.88
2023-01-31T11:32:51.270Z,68.97
2023-01-31T11:35:28.699Z,68.05
2023-01-31T11:38:00.072Z,68.29
2023-01-31T11:40:31.450Z,68.32
2023-01-31T11:43:01.418Z,68.35
2023-01-31T11:45:32.154Z,67.77
2023-01-31T11:48:08.352Z,67.17
2023-01-31T11:50:39.125Z,67.29
2023-01-31T11:53:18.787Z,66.58
2023-01-31T11:55:48.973Z,66.77
2023-01-31T11:58:22.209Z,67.10
2023-01-31T12:00:57.132Z,66.58
2023-01-31T12:03:26.429Z,67.05
2023-01-31T12:06:04.907Z,66.15
2023-01-31T12:08:37.326Z,65.92
2023-01-31T12:11:07.044Z,65.49
2023-01-31T12:13:47.715Z,66.60
2023-01-31T12:16:18.858Z,66.45
2023-01-31T12:18:59.626Z,66.53
2023-01-31T12:21:41.349Z,66.45
2023-01-31T12:24:24.376Z,66.36
2023-01-31T12:26:56.354Z,65.90
2023-01-31T12:29:48.976Z,64.61
2023-01-31T12:32:41.768Z,63.80
2023-01-31T12:35:27.577Z,64.98
2023-01-31T12:38:06.108Z,65.39
2023-01-31T12:40:50.282Z,63.54
2023-01-31T12:43:39.053Z,63.19
2023-01-31T12:46:16.258Z,65.91
2023-01-31T12:49:05.478Z,65.49
2023-01-31T12:51:44.648Z,66.76
2023-01-31T12:54:25.282Z,66.66
2023-01-31T12:57:02.966Z,65.94
2023-01-31T12:59:46.625Z,65.42
2023-01-31T13:02:33.790Z,64.82
2023-01-31T13:05:10.667Z,64.22
2023-01-31T13:07:44.044Z,64.80
2023-01-31T13:10:26.324Z,63.96
2023-01-31T13:12:58.179Z,64.89
2023-01-31T13:15:34.054Z,64.45
2023-01-31T13:18:06.144Z,64.95
2023-01-31T13:20:40.019Z,63.52
2023-01-31T13:23:14.461Z,63.29
2023-01-31T13:25:45.832Z,63.08
2023-01-31T13:28:20.112Z,62.38
2023-01-31T13:30:56.403Z,63.46
2023-01-31T13:33:33.742Z,62.66
2023-01-31T13:36:09.728Z,62.40
2023-01-31T13:38:42.380Z,61.47
2023-01-31T13:41:18.733Z,61.78
2023-01-31T13:43:48.098Z,62.23
2023-01-31T13:46:21.178Z,61.50
2023-01-31T13:48:55.982Z,61.11
2023-01-31T13:51:29.278Z,61.10
2023-01-31T13:54:02.414Z,60.07
2023-01-31T13:56:34.928Z,60.20
2023-01-31T13:59:08.397Z,59.81
2023-01-31T14:01:44.328Z,59.99
2023-01-31T14:04:33.627Z,59.11
2023-01-31T14:07:23.941Z,58.55
2023-01-31T14:10:37.858Z,58.01
2023-01-31T14:13:38.809Z,58.79
2023-01-31T14:16:39.950Z,58.24
2023-01-31T14:19:46.897Z,57.64
2023-01-31T14:22:17.155Z,59.89
2023-01-31T14:25:04.675Z,57.87
2023-01-31T14:27:35.949Z,59.14
2023-01-31T14:30:35.839Z,58.32
2023-01-31T14:33:09.183Z,58.73
2023-01-31T14:35:51.895Z,57.99
2023-01-31T14:38:29.608Z,58.03
2023-01-31T14:41:07.055Z,57.19
2023-01-31T14:43:50.127Z,56.29
2023-01-31T14:46:38.660Z,56.07
2023-01-31T14:49:35.769Z,56.47
2023-01-31T14:52:21.410Z,56.34
2023-01-31T14:55:10.485Z,56.18
2023-01-31T14:57:42.207Z,56.75
2023-01-31T15:00:21.261Z,57.00
2023-01-31T15:02:54.948Z,56.39
2023-01-31T15:05:40.519Z,56.20
2023-01-31T15:08:35.041Z,55.45
2023-01-31T15:11:05.360Z,56.76
2023-01-31T15:13:47.294Z,54.95
2023-01-31T15:16:21.436Z,54.72
2023-01-31T15:18:54.124Z,55.10
2023-01-31T15:21:28.051Z,55.02
2023-01-31T15:23:57.110Z,54.64
2023-01-31T15:26:29.700Z,54.05
2023-01-31T15:28:59.199Z,55.72
2023-01-31T15:31:32.228Z,54.19
2023-01-31T15:34:04.987Z,54.40
2023-01-31T15:36:39.834Z,54.79
2023-01-31T15:39:21.314Z,53.66
2023-01-31T15:41:49.451Z,54.57
2023-01-31T15:44:20.739Z,55.24
2023-01-31T15:46:50.711Z,55.09
2023-01-31T15:49:39.207Z,54.72
2023-01-31T15:52:15.489Z,54.99
2023-01-31T15:54:53.696Z,54.52
2023-01-31T15:57:24.068Z,54.79
2023-01-31T15:59:52.359Z,55.63
2023-01-31T16:02:26.281Z,55.70
2023-01-31T16:04:54.690Z,55.68
2023-01-31T16:07:28.580Z,55.32
2023-01-31T16:09:58.318Z,55.16
2023-01-31T16:12:27.237Z,55.22
2023-01-31T16:14:59.339Z,55.59
2023-01-31T16:17:28.792Z,55.34
2023-01-31T16:19:58.310Z,55.30
2023-01-31T16:22:29.757Z,55.61
2023-01-31T16:24:59.461Z,55.53
2023-01-31T16:27:30.032Z,56.11
2023-01-31T16:29:59.540Z,57.38
2023-01-31T16:32:30.591Z,57.93
2023-01-31T16:35:02.162Z,58.50
2023-01-31T16:37:37.177Z,58.39
2023-01-31T16:40:11.812Z,59.93
2023-01-31T16:42:39.840Z,60.13
2023-01-31T16:45:28.392Z,60.91
2023-01-31T16:47:56.514Z,61.18
2023-01-31T16:50:42.557Z,61.18
2023-01-31T16:53:26.306Z,62.28
2023-01-31T16:56:22.927Z,63.28
2023-01-31T16:58:56.425Z,62.12
2023-01-31T17:01:27.854Z,62.73
2023-01-31T17:04:18.161Z,62.23
2023-01-31T17:06:51.036Z,61.56
2023-01-31T17:09:23.143Z,61.52
2023-01-31T17:11:51.618Z,61.04
2023-01-31T17:14:19.694Z,61.90
2023-01-31T17:16:51.129Z,62.19
2023-01-31T17:19:19.187Z,63.28
2023-01-31T17:21:49.844Z,63.29
2023-01-31T17:24:19.376Z,63.46
2023-01-31T17:26:48.875Z,62.73
2023-01-31T17:29:16.979Z,63.52
2023-01-31T17:31:44.963Z,63.75
2023-01-31T17:34:14.736Z,63.79
2023-01-31T17:36:43.232Z,63.08
2023-01-31T17:39:11.462Z,63.87
2023-01-31T17:41:41.294Z,63.72
2023-01-31T17:44:14.559Z,64.50
2023-01-31T17:46:43.118Z,64.92
2023-01-31T17:49:11.387Z,64.93
2023-01-31T17:51:39.493Z,66.14
2023-01-31T17:54:07.494Z,65.72
2023-01-31T17:56:36.131Z,66.62
2023-01-31T17:59:05.763Z,66.94
2023-01-31T18:01:35.259Z,67.55
2023-01-31T18:04:04.511Z,66.84
2023-01-31T18:06:32.653Z,66.81
2023-01-31T18:09:05.865Z,68.20
2023-01-31T18:11:34.529Z,67.75
2023-01-31T18:14:03.933Z,67.91
2023-01-31T18:16:32.704Z,68.86
2023-01-31T18:19:02.102Z,68.24
2023-01-31T18:21:30.121Z,68.43
2023-01-31T18:23:59.983Z,68.53
2023-01-31T18:26:28.345Z,68.65
2023-01-31T18:28:57.676Z,69.14
2023-01-31T18:31:26.140Z,69.16
2023-01-31T18:33:54.208Z,69.74
2023-01-31T18:36:23.940Z,69.72
2023-01-31T18:38:52.468Z,69.75
2023-01-31T18:41:22.002Z,70.26
2023-01-31T18:43:50.581Z,70.32
2023-01-31T18:46:18.684Z,70.42
2023-01-31T18:48:46.893Z,70.67
2023-01-31T18:51:16.404Z,70.53
2023-01-31T18:53:47.641Z,70.52
2023-01-31T18:56:17.487Z,71.07
2023-01-31T18:58:46.641Z,70.98
2023-01-31T19:01:17.415Z,70.88
2023-01-31T19:03:46.916Z,70.79
2023-01-31T19:06:16.084Z,71.48
2023-01-31T19:08:49.406Z,71.78
2023-01-31T19:11:19.366Z,70.64
2023-01-31T19:13:47.771Z,71.28
2023-01-31T19:16:17.478Z,71.81
2023-01-31T19:18:46.029Z,71.98
2023-01-31T19:21:17.917Z,71.41
2023-01-31T19:23:47.828Z,71.80
2023-01-31T19:26:17.209Z,71.80
2023-01-31T19:28:46.519Z,72.89
2023-01-31T19:31:16.664Z,72.14
2023-01-31T19:33:50.141Z,72.77
2023-01-31T19:36:19.725Z,72.32
2023-01-31T19:38:49.333Z,72.82
2023-01-31T19:41:19.401Z,72.27
2023-01-31T19:43:49.086Z,72.33
2023-01-31T19:46:17.073Z,72.88
2023-01-31T19:48:45.105Z,73.15
2023-01-31T19:51:14.935Z,72.92
2023-01-31T19:53:45.325Z,72.85
2023-01-31T19:56:15.184Z,72.93
2023-01-31T19:58:43.456Z,72.78
2023-01-31T20:01:13.644Z,73.95
2023-01-31T20:03:41.689Z,73.44
2023-01-31T20:06:12.115Z,73.59
2023-01-31T20:08:40.475Z,73.46
2023-01-31T20:11:09.256Z,73.79
2023-01-31T20:13:38.737Z,73.43
2023-01-31T20:16:08.906Z,74.35
2023-01-31T20:18:38.425Z,73.36
2023-01-31T20:21:07.769Z,73.49
2023-01-31T20:23:36.768Z,73.25
2023-01-31T20:26:04.897Z,73.96
2023-01-31T20:28:34.358Z,74.48
2023-01-31T20:31:08.302Z,74.03
2023-01-31T20:33:36.605Z,73.99
2023-01-31T20:36:05.307Z,74.21
2023-01-31T20:38:33.527Z,73.71
2023-01-31T20:41:01.486Z,73.53
2023-01-31T20:43:29.515Z,73.32
2023-01-31T20:46:03.611Z,73.87
2023-01-31T20:48:33.461Z,74.03
2023-01-31T20:51:01.567Z,73.67
2023-01-31T20:53:30.427Z,74.21
2023-01-31T20:55:59.865Z,74.47
2023-01-31T20:58:28.831Z,74.36
2023-01-31T21:00:58.196Z,74.06
2023-01-31T21:03:26.774Z,74.80
2023-01-31T21:05:58.428Z,74.59
2023-01-31T21:08:27.329Z,75.31
2023-01-31T21:10:57.410Z,75.36
2023-01-31T21:13:27.936Z,75.20
2023-01-31T21:15:58.065Z,75.22
2023-01-31T21:18:28.735Z,75.26
2023-01-31T21:20:58.389Z,75.31
2023-01-31T21:23:26.519Z,75.85
2023-01-31T21:25:54.566Z,75.87
2023-01-31T21:28:27.215Z,76.30
2023-01-31T21:30:59.752Z,75.88
2023-01-31T21:33:29.752Z,76.22
2023-01-31T21:36:00.779Z,76.00
2023-01-31T21:38:28.956Z,75.66
2023-01-31T21:41:10.840Z,76.08
2023-01-31T21:43:41.352Z,76.26
2023-01-31T21:46:10.032Z,76.35
2023-01-31T21:48:38.556Z,76.36
2023-01-31T21:51:10.068Z,76.61
2023-01-31T21:53:38.899Z,76.67
2023-01-31T21:56:09.061Z,76.78
2023-01-31T21:58:38.433Z,76.79
2023-01-31T22:01:07.860Z,76.84
2023-01-31T22:03:36.173Z,77.20
2023-01-31T22:06:05.362Z,77.45
2023-01-31T22:08:35.369Z,77.67
2023-01-31T22:11:04.987Z,77.51
2023-01-31T22:13:33.654Z,77.57
2023-01-31T22:16:02.476Z,77.84
2023-01-31T22:18:32.383Z,77.77
2023-01-31T22:21:05.329Z,77.85
2023-01-31T22:23:35.629Z,77.88
2023-01-31T22:26:05.304Z,77.77
2023-01-31T22:28:33.739Z,77.97
2023-01-31T22:31:02.524Z,77.76
2023-01-31T22:33:31.179Z,78.04
2023-01-31T22:35:59.577Z,78.25
2023-01-31T22:38:28.478Z,78.14
2023-01-31T22:41:00.104Z,78.50
2023-01-31T22:43:28.997Z,78.21
2023-01-31T22:45:58.548Z,78.52
2023-01-31T22:48:27.609Z,78.71
2023-01-31T22:50:57.136Z,78.62
2023-01-31T22:53:25.818Z,78.50
2023-01-31T22:55:54.025Z,78.20
2023-01-31T22:58:23.439Z,78.18
2023-01-31T23:00:51.453Z,78.37
2023-01-31T23:03:19.521Z,78.46
2023-01-31T23:05:47.526Z,78.28
2023-01-31T23:08:16.470Z,78.59
2023-01-31T23:10:45.106Z,78.34
2023-01-31T23:13:13.678Z,78.23
2023-01-31T23:15:43.230Z,77.75
2023-01-31T23:18:11.300Z,77.84
2023-01-31T23:20:39.251Z,78.15
2023-01-31T23:23:07.245Z,78.32
2023-01-31T23:25:35.208Z,78.12
2023-01-31T23:28:03.537Z,78.40
2023-01-31T23:30:31.640Z,78.51
2023-01-31T23:33:01.077Z,78.33
2023-01-31T23:35:29.200Z,78.00
2023-01-31T23:37:57.157Z,78.44
2023-01-31T23:40:25.203Z,78.25
2023-01-31T23:42:53.171Z,78.97
2023-01-31T23:45:21.195Z,78.85
2023-01-31T23:47:50.421Z,78.74
2023-01-31T23:50:20.658Z,78.98
2023-01-31T23:52:48.853Z,79.30
2023-01-31T23:55:18.279Z,79.76
2023-01-31T23:57:46.745Z,79.89
